sensor_id;sensor_type;location;lat;lon;timestamp;pressure;altitude;pressure_sealevel;temperature;humidity
21182;BME280;10749;46.296;7.524;2022-08-01T00:00:32;95109.38;;;25.96;31.96
21182;BME280;10749;46.296;7.524;2022-08-01T00:02:57;95107.72;;;25.90;32.23
21182;BME280;10749;46.296;7.524;2022-08-01T00:05:23;95104.19;;;25.74;32.18
21182;BME280;10749;46.296;7.524;2022-08-01T00:07:48;95102.56;;;25.78;32.30
21182;BME280;10749;46.296;7.524;2022-08-01T00:10:15;95104.47;;;25.83;32.28
21182;BME280;10749;46.296;7.524;2022-08-01T00:12:42;95103.91;;;25.81;31.85
21182;BME280;10749;46.296;7.524;2022-08-01T00:15:10;95104.72;;;25.76;32.01
21182;BME280;10749;46.296;7.524;2022-08-01T00:17:36;95107.72;;;25.75;32.05
21182;BME280;10749;46.296;7.524;2022-08-01T00:20:04;95109.31;;;25.70;32.51
21182;BME280;10749;46.296;7.524;2022-08-01T00:22:34;95106.03;;;25.53;32.58
21182;BME280;10749;46.296;7.524;2022-08-01T00:24:59;95107.91;;;25.53;32.68
21182;BME280;10749;46.296;7.524;2022-08-01T00:27:25;95098.94;;;25.52;32.56
21182;BME280;10749;46.296;7.524;2022-08-01T00:29:50;95109.22;;;25.45;32.85
21182;BME280;10749;46.296;7.524;2022-08-01T00:32:16;95104.84;;;25.34;33.30
21182;BME280;10749;46.296;7.524;2022-08-01T00:34:41;95107.56;;;25.34;33.19
21182;BME280;10749;46.296;7.524;2022-08-01T00:37:07;95109.16;;;25.35;33.64
21182;BME280;10749;46.296;7.524;2022-08-01T00:39:32;95110.22;;;25.29;33.66
21182;BME280;10749;46.296;7.524;2022-08-01T00:41:59;95105.84;;;25.18;33.86
21182;BME280;10749;46.296;7.524;2022-08-01T00:44:24;95101.53;;;25.17;34.06
21182;BME280;10749;46.296;7.524;2022-08-01T00:46:49;95112.84;;;25.14;33.84
21182;BME280;10749;46.296;7.524;2022-08-01T00:49:15;95109.59;;;25.12;33.98
21182;BME280;10749;46.296;7.524;2022-08-01T00:51:40;95108.50;;;25.08;33.93
21182;BME280;10749;46.296;7.524;2022-08-01T00:54:06;95109.84;;;25.05;33.93
21182;BME280;10749;46.296;7.524;2022-08-01T00:56:31;95112.28;;;25.07;33.90
21182;BME280;10749;46.296;7.524;2022-08-01T00:58:58;95120.38;;;25.02;34.33
21182;BME280;10749;46.296;7.524;2022-08-01T01:01:24;95112.25;;;24.97;34.34
21182;BME280;10749;46.296;7.524;2022-08-01T01:03:50;95113.81;;;24.88;34.69
21182;BME280;10749;46.296;7.524;2022-08-01T01:10:12;95118.63;;;24.80;34.75
21182;BME280;10749;46.296;7.524;2022-08-01T01:12:27;95114.78;;;24.76;34.58
21182;BME280;10749;46.296;7.524;2022-08-01T01:15:10;95119.91;;;24.73;35.03
21182;BME280;10749;46.296;7.524;2022-08-01T01:17:41;95125.50;;;24.61;34.58
21182;BME280;10749;46.296;7.524;2022-08-01T01:20:08;95123.66;;;24.67;34.98
21182;BME280;10749;46.296;7.524;2022-08-01T01:22:47;95122.03;;;24.66;35.28
21182;BME280;10749;46.296;7.524;2022-08-01T01:25:39;95117.69;;;24.60;34.82
21182;BME280;10749;46.296;7.524;2022-08-01T01:28:15;95115.25;;;24.63;34.95
21182;BME280;10749;46.296;7.524;2022-08-01T01:30:46;95113.28;;;24.54;35.27
21182;BME280;10749;46.296;7.524;2022-08-01T01:33:14;95119.41;;;24.39;35.65
21182;BME280;10749;46.296;7.524;2022-08-01T01:35:47;95119.13;;;24.41;35.53
21182;BME280;10749;46.296;7.524;2022-08-01T01:38:18;95118.25;;;24.30;35.91
21182;BME280;10749;46.296;7.524;2022-08-01T01:40:46;95123.38;;;24.31;36.08
21182;BME280;10749;46.296;7.524;2022-08-01T01:43:14;95113.09;;;24.28;36.14
21182;BME280;10749;46.296;7.524;2022-08-01T01:45:40;95118.34;;;24.13;36.34
21182;BME280;10749;46.296;7.524;2022-08-01T01:48:08;95113.25;;;24.17;36.07
21182;BME280;10749;46.296;7.524;2022-08-01T01:50:35;95117.63;;;24.23;35.92
21182;BME280;10749;46.296;7.524;2022-08-01T01:53:01;95111.72;;;24.26;36.02
21182;BME280;10749;46.296;7.524;2022-08-01T01:55:28;95119.84;;;24.31;35.55
21182;BME280;10749;46.296;7.524;2022-08-01T01:57:55;95121.25;;;24.33;35.42
21182;BME280;10749;46.296;7.524;2022-08-01T02:00:22;95119.38;;;24.34;35.63
21182;BME280;10749;46.296;7.524;2022-08-01T02:02:49;95121.19;;;24.28;35.65
21182;BME280;10749;46.296;7.524;2022-08-01T02:05:16;95125.28;;;24.31;35.56
21182;BME280;10749;46.296;7.524;2022-08-01T02:07:43;95123.91;;;24.28;35.58
21182;BME280;10749;46.296;7.524;2022-08-01T02:10:10;95125.50;;;24.24;35.85
21182;BME280;10749;46.296;7.524;2022-08-01T02:12:37;95128.16;;;24.19;36.13
21182;BME280;10749;46.296;7.524;2022-08-01T02:15:05;95130.78;;;24.14;36.16
21182;BME280;10749;46.296;7.524;2022-08-01T02:17:31;95139.34;;;24.06;36.15
21182;BME280;10749;46.296;7.524;2022-08-01T02:19:57;95140.16;;;24.07;36.32
21182;BME280;10749;46.296;7.524;2022-08-01T02:22:40;95133.16;;;24.06;36.29
21182;BME280;10749;46.296;7.524;2022-08-01T02:25:12;95138.56;;;24.06;36.55
21182;BME280;10749;46.296;7.524;2022-08-01T02:27:45;95135.81;;;24.01;36.52
21182;BME280;10749;46.296;7.524;2022-08-01T02:30:14;95135.69;;;23.90;36.89
21182;BME280;10749;46.296;7.524;2022-08-01T02:32:46;95141.66;;;23.92;36.73
21182;BME280;10749;46.296;7.524;2022-08-01T02:35:19;95144.38;;;23.92;36.77
21182;BME280;10749;46.296;7.524;2022-08-01T02:37:45;95141.09;;;23.90;36.96
21182;BME280;10749;46.296;7.524;2022-08-01T02:40:13;95144.38;;;23.92;36.92
21182;BME280;10749;46.296;7.524;2022-08-01T02:42:43;95148.66;;;23.88;36.53
21182;BME280;10749;46.296;7.524;2022-08-01T02:45:11;95141.31;;;23.84;36.47
21182;BME280;10749;46.296;7.524;2022-08-01T02:47:38;95147.78;;;23.83;36.91
21182;BME280;10749;46.296;7.524;2022-08-01T02:50:05;95142.31;;;23.78;36.91
21182;BME280;10749;46.296;7.524;2022-08-01T02:52:34;95145.22;;;23.71;37.40
21182;BME280;10749;46.296;7.524;2022-08-01T02:55:01;95141.63;;;23.66;37.50
21182;BME280;10749;46.296;7.524;2022-08-01T02:57:28;95143.22;;;23.62;37.51
21182;BME280;10749;46.296;7.524;2022-08-01T02:59:55;95138.13;;;23.65;37.55
21182;BME280;10749;46.296;7.524;2022-08-01T03:02:23;95148.38;;;23.63;37.66
21182;BME280;10749;46.296;7.524;2022-08-01T03:04:49;95136.38;;;23.54;37.76
21182;BME280;10749;46.296;7.524;2022-08-01T03:07:18;95140.66;;;23.50;37.81
21182;BME280;10749;46.296;7.524;2022-08-01T03:09:45;95136.50;;;23.42;37.93
21182;BME280;10749;46.296;7.524;2022-08-01T03:12:19;95139.72;;;23.39;37.81
21182;BME280;10749;46.296;7.524;2022-08-01T03:14:49;95143.16;;;23.35;38.15
21182;BME280;10749;46.296;7.524;2022-08-01T03:17:18;95138.25;;;23.32;38.11
21182;BME280;10749;46.296;7.524;2022-08-01T03:19:45;95145.03;;;23.34;38.29
21182;BME280;10749;46.296;7.524;2022-08-01T03:22:12;95135.06;;;23.35;38.07
21182;BME280;10749;46.296;7.524;2022-08-01T03:24:41;95144.16;;;23.29;37.94
21182;BME280;10749;46.296;7.524;2022-08-01T03:27:08;95139.56;;;23.29;38.32
21182;BME280;10749;46.296;7.524;2022-08-01T03:29:36;95134.84;;;23.20;38.26
21182;BME280;10749;46.296;7.524;2022-08-01T03:32:03;95136.56;;;23.26;38.27
21182;BME280;10749;46.296;7.524;2022-08-01T03:34:30;95142.19;;;23.24;38.42
21182;BME280;10749;46.296;7.524;2022-08-01T03:37:01;95132.72;;;23.22;38.42
21182;BME280;10749;46.296;7.524;2022-08-01T03:39:41;95143.47;;;23.17;38.77
21182;BME280;10749;46.296;7.524;2022-08-01T03:42:14;95148.78;;;23.12;39.07
21182;BME280;10749;46.296;7.524;2022-08-01T03:44:48;95148.78;;;23.12;38.84
21182;BME280;10749;46.296;7.524;2022-08-01T03:47:17;95146.66;;;23.14;38.89
21182;BME280;10749;46.296;7.524;2022-08-01T03:49:44;95151.47;;;23.12;38.85
21182;BME280;10749;46.296;7.524;2022-08-01T03:52:12;95148.72;;;23.07;39.34
21182;BME280;10749;46.296;7.524;2022-08-01T03:54:42;95145.25;;;22.89;39.44
21182;BME280;10749;46.296;7.524;2022-08-01T03:57:11;95149.00;;;22.88;39.46
21182;BME280;10749;46.296;7.524;2022-08-01T03:59:37;95152.78;;;22.87;39.42
21182;BME280;10749;46.296;7.524;2022-08-01T04:02:03;95154.09;;;22.85;39.59
21182;BME280;10749;46.296;7.524;2022-08-01T04:04:30;95149.53;;;22.85;39.48
21182;BME280;10749;46.296;7.524;2022-08-01T04:06:55;95148.38;;;22.81;39.63
21182;BME280;10749;46.296;7.524;2022-08-01T04:09:21;95155.06;;;22.79;39.76
21182;BME280;10749;46.296;7.524;2022-08-01T04:11:47;95154.25;;;22.78;39.80
21182;BME280;10749;46.296;7.524;2022-08-01T04:14:13;95156.41;;;22.76;39.69
21182;BME280;10749;46.296;7.524;2022-08-01T04:16:38;95156.06;;;22.73;39.54
21182;BME280;10749;46.296;7.524;2022-08-01T04:19:04;95158.50;;;22.74;39.16
21182;BME280;10749;46.296;7.524;2022-08-01T04:21:32;95157.84;;;22.67;39.64
21182;BME280;10749;46.296;7.524;2022-08-01T04:24:10;95156.69;;;22.63;39.43
21182;BME280;10749;46.296;7.524;2022-08-01T04:26:38;95152.06;;;22.75;39.42
21182;BME280;10749;46.296;7.524;2022-08-01T04:29:05;95157.84;;;22.84;39.35
21182;BME280;10749;46.296;7.524;2022-08-01T04:31:32;95148.78;;;22.90;39.07
21182;BME280;10749;46.296;7.524;2022-08-01T04:34:01;95158.78;;;22.94;39.09
21182;BME280;10749;46.296;7.524;2022-08-01T04:36:28;95155.03;;;22.95;39.10
21182;BME280;10749;46.296;7.524;2022-08-01T04:38:58;95160.44;;;22.95;38.94
21182;BME280;10749;46.296;7.524;2022-08-01T04:41:25;95163.72;;;22.97;39.03
21182;BME280;10749;46.296;7.524;2022-08-01T04:43:51;95171.41;;;22.89;39.22
21182;BME280;10749;46.296;7.524;2022-08-01T04:46:18;95171.16;;;22.90;38.99
21182;BME280;10749;46.296;7.524;2022-08-01T04:48:44;95174.44;;;22.92;39.19
21182;BME280;10749;46.296;7.524;2022-08-01T04:51:14;95172.06;;;22.96;38.70
21182;BME280;10749;46.296;7.524;2022-08-01T04:53:42;95160.28;;;23.02;38.63
21182;BME280;10749;46.296;7.524;2022-08-01T04:56:07;95151.91;;;23.04;38.96
21182;BME280;10749;46.296;7.524;2022-08-01T04:58:32;95162.59;;;22.93;39.30
21182;BME280;10749;46.296;7.524;2022-08-01T05:00:58;95164.69;;;22.91;39.16
21182;BME280;10749;46.296;7.524;2022-08-01T05:03:23;95164.19;;;22.94;38.82
21182;BME280;10749;46.296;7.524;2022-08-01T05:05:48;95161.03;;;22.97;39.02
21182;BME280;10749;46.296;7.524;2022-08-01T05:08:14;95165.75;;;22.90;39.54
21182;BME280;10749;46.296;7.524;2022-08-01T05:10:39;95166.09;;;22.94;39.45
21182;BME280;10749;46.296;7.524;2022-08-01T05:13:04;95162.59;;;22.93;39.56
21182;BME280;10749;46.296;7.524;2022-08-01T05:15:31;95168.13;;;22.87;39.44
21182;BME280;10749;46.296;7.524;2022-08-01T05:17:57;95159.88;;;22.93;39.19
21182;BME280;10749;46.296;7.524;2022-08-01T05:20:22;95160.28;;;23.02;39.40
21182;BME280;10749;46.296;7.524;2022-08-01T05:22:47;95163.03;;;23.07;39.34
21182;BME280;10749;46.296;7.524;2022-08-01T05:25:13;95159.56;;;23.12;39.33
21182;BME280;10749;46.296;7.524;2022-08-01T05:27:38;95159.66;;;23.17;39.01
21182;BME280;10749;46.296;7.524;2022-08-01T05:30:08;95159.03;;;23.10;39.58
21182;BME280;10749;46.296;7.524;2022-08-01T05:32:33;95160.31;;;23.07;39.69
21182;BME280;10749;46.296;7.524;2022-08-01T05:34:59;95158.94;;;23.05;39.72
21182;BME280;10749;46.296;7.524;2022-08-01T05:37:24;95159.47;;;23.02;40.43
21182;BME280;10749;46.296;7.524;2022-08-01T05:39:50;95154.19;;;23.12;39.95
21182;BME280;10749;46.296;7.524;2022-08-01T05:42:15;95162.66;;;23.20;39.16
21182;BME280;10749;46.296;7.524;2022-08-01T05:44:41;95158.16;;;23.26;39.16
21182;BME280;10749;46.296;7.524;2022-08-01T05:47:06;95158.22;;;23.31;39.26
21182;BME280;10749;46.296;7.524;2022-08-01T05:49:31;95159.28;;;23.30;39.85
21182;BME280;10749;46.296;7.524;2022-08-01T05:51:57;95161.47;;;23.33;39.63
21182;BME280;10749;46.296;7.524;2022-08-01T05:54:22;95149.94;;;23.37;39.77
21182;BME280;10749;46.296;7.524;2022-08-01T05:56:48;95159.50;;;23.45;39.39
21182;BME280;10749;46.296;7.524;2022-08-01T05:59:13;95160.63;;;23.49;39.84
21182;BME280;10749;46.296;7.524;2022-08-01T06:01:38;95152.78;;;23.48;39.82
21182;BME280;10749;46.296;7.524;2022-08-01T06:04:04;95152.81;;;23.31;39.68
21182;BME280;10749;46.296;7.524;2022-08-01T06:06:29;95155.25;;;23.32;39.15
21182;BME280;10749;46.296;7.524;2022-08-01T06:08:54;95160.09;;;23.47;39.37
21182;BME280;10749;46.296;7.524;2022-08-01T06:11:20;95154.84;;;23.62;39.32
21182;BME280;10749;46.296;7.524;2022-08-01T06:13:45;95162.00;;;23.73;39.32
21182;BME280;10749;46.296;7.524;2022-08-01T06:16:11;95158.28;;;23.79;39.25
21182;BME280;10749;46.296;7.524;2022-08-01T06:18:36;95158.94;;;23.91;39.24
21182;BME280;10749;46.296;7.524;2022-08-01T06:21:01;95154.22;;;24.04;38.90
21182;BME280;10749;46.296;7.524;2022-08-01T06:23:26;95151.63;;;24.14;39.11
21182;BME280;10749;46.296;7.524;2022-08-01T06:25:53;95158.25;;;24.28;38.77
21182;BME280;10749;46.296;7.524;2022-08-01T06:28:23;95155.66;;;24.38;38.76
21182;BME280;10749;46.296;7.524;2022-08-01T06:30:48;95155.53;;;24.28;38.43
21182;BME280;10749;46.296;7.524;2022-08-01T06:33:13;95155.50;;;24.23;38.32
21182;BME280;10749;46.296;7.524;2022-08-01T06:35:39;95156.94;;;24.30;38.46
21182;BME280;10749;46.296;7.524;2022-08-01T06:38:04;95151.31;;;24.37;38.20
21182;BME280;10749;46.296;7.524;2022-08-01T06:40:29;95147.00;;;24.41;38.07
21182;BME280;10749;46.296;7.524;2022-08-01T06:42:55;95137.38;;;24.55;38.24
21182;BME280;10749;46.296;7.524;2022-08-01T06:45:20;95138.03;;;24.72;38.13
21182;BME280;10749;46.296;7.524;2022-08-01T06:47:47;95139.53;;;24.90;38.07
21182;BME280;10749;46.296;7.524;2022-08-01T06:50:13;95141.78;;;25.03;37.64
21182;BME280;10749;46.296;7.524;2022-08-01T06:52:40;95138.84;;;25.10;37.33
21182;BME280;10749;46.296;7.524;2022-08-01T06:55:06;95137.25;;;25.19;37.60
21182;BME280;10749;46.296;7.524;2022-08-01T06:57:31;95133.78;;;25.28;37.49
21182;BME280;10749;46.296;7.524;2022-08-01T07:00:00;95128.97;;;25.41;37.53
21182;BME280;10749;46.296;7.524;2022-08-01T07:02:25;95131.72;;;25.51;37.35
21182;BME280;10749;46.296;7.524;2022-08-01T07:04:51;95128.25;;;25.60;37.21
21182;BME280;10749;46.296;7.524;2022-08-01T07:07:16;95131.25;;;25.69;37.17
21182;BME280;10749;46.296;7.524;2022-08-01T07:09:41;95124.22;;;25.63;36.86
21182;BME280;10749;46.296;7.524;2022-08-01T07:12:07;95123.69;;;25.71;37.01
21182;BME280;10749;46.296;7.524;2022-08-01T07:14:33;95123.97;;;25.85;37.04
21182;BME280;10749;46.296;7.524;2022-08-01T07:16:58;95132.13;;;25.90;36.87
21182;BME280;10749;46.296;7.524;2022-08-01T07:19:23;95121.84;;;25.97;36.92
21182;BME280;10749;46.296;7.524;2022-08-01T07:21:49;95117.81;;;26.04;36.66
21182;BME280;10749;46.296;7.524;2022-08-01T07:24:14;95110.75;;;26.08;36.62
21182;BME280;10749;46.296;7.524;2022-08-01T07:26:42;95109.13;;;26.12;36.49
21182;BME280;10749;46.296;7.524;2022-08-01T07:29:08;95111.06;;;26.22;36.75
21182;BME280;10749;46.296;7.524;2022-08-01T07:31:33;95099.63;;;26.10;36.49
21182;BME280;10749;46.296;7.524;2022-08-01T07:33:58;95104.53;;;26.13;36.34
21182;BME280;10749;46.296;7.524;2022-08-01T07:36:24;95097.47;;;26.22;36.32
21182;BME280;10749;46.296;7.524;2022-08-01T07:38:49;95090.44;;;26.36;36.21
21182;BME280;10749;46.296;7.524;2022-08-01T07:41:16;95094.25;;;26.45;36.29
21182;BME280;10749;46.296;7.524;2022-08-01T07:43:41;95085.00;;;26.51;35.93
21182;BME280;10749;46.296;7.524;2022-08-01T07:46:07;95089.34;;;26.57;35.99
21182;BME280;10749;46.296;7.524;2022-08-01T07:48:32;95090.69;;;26.65;36.21
21182;BME280;10749;46.296;7.524;2022-08-01T07:50:58;95086.59;;;26.73;35.76
21182;BME280;10749;46.296;7.524;2022-08-01T07:53:24;95083.88;;;26.78;35.75
21182;BME280;10749;46.296;7.524;2022-08-01T07:55:50;95083.88;;;26.88;36.13
21182;BME280;10749;46.296;7.524;2022-08-01T07:58:15;95077.63;;;26.92;35.56
21182;BME280;10749;46.296;7.524;2022-08-01T08:00:41;95076.25;;;27.00;35.96
21182;BME280;10749;46.296;7.524;2022-08-01T08:03:07;95077.28;;;27.09;35.49
21182;BME280;10749;46.296;7.524;2022-08-01T08:05:32;95070.19;;;27.23;35.72
21182;BME280;10749;46.296;7.524;2022-08-01T08:08:01;95062.25;;;27.37;35.68
21182;BME280;10749;46.296;7.524;2022-08-01T08:10:27;95063.38;;;27.26;34.98
21182;BME280;10749;46.296;7.524;2022-08-01T08:12:52;95064.84;;;27.03;35.01
21182;BME280;10749;46.296;7.524;2022-08-01T08:15:17;95064.84;;;27.08;35.48
21182;BME280;10749;46.296;7.524;2022-08-01T08:17:43;95061.25;;;27.18;35.01
21182;BME280;10749;46.296;7.524;2022-08-01T08:20:08;95064.75;;;27.23;35.05
21182;BME280;10749;46.296;7.524;2022-08-01T08:22:34;95065.00;;;27.27;34.73
21182;BME280;10749;46.296;7.524;2022-08-01T08:25:00;95061.47;;;27.31;35.13
21182;BME280;10749;46.296;7.524;2022-08-01T08:27:25;95059.00;;;27.30;34.93
21182;BME280;10749;46.296;7.524;2022-08-01T08:29:50;95056.03;;;27.31;34.53
21182;BME280;10749;46.296;7.524;2022-08-01T08:32:16;95058.19;;;27.34;34.79
21182;BME280;10749;46.296;7.524;2022-08-01T08:34:41;95054.34;;;27.45;34.58
21182;BME280;10749;46.296;7.524;2022-08-01T08:37:07;95052.16;;;27.42;34.34
21182;BME280;10749;46.296;7.524;2022-08-01T08:39:32;95051.09;;;27.48;34.71
21182;BME280;10749;46.296;7.524;2022-08-01T08:42:01;95044.50;;;27.60;34.68
21182;BME280;10749;46.296;7.524;2022-08-01T08:44:27;95047.69;;;27.72;34.56
21182;BME280;10749;46.296;7.524;2022-08-01T08:46:52;95035.13;;;27.81;34.71
21182;BME280;10749;46.296;7.524;2022-08-01T08:49:23;95034.50;;;27.89;34.17
21182;BME280;10749;46.296;7.524;2022-08-01T08:51:50;95029.25;;;27.64;33.45
21182;BME280;10749;46.296;7.524;2022-08-01T08:54:17;95029.47;;;27.72;33.89
21182;BME280;10749;46.296;7.524;2022-08-01T08:56:44;95028.59;;;27.82;33.72
21182;BME280;10749;46.296;7.524;2022-08-01T08:59:12;95024.22;;;27.86;34.08
21182;BME280;10749;46.296;7.524;2022-08-01T09:01:41;95021.19;;;27.87;33.78
21182;BME280;10749;46.296;7.524;2022-08-01T09:04:07;95025.19;;;28.00;33.88
21182;BME280;10749;46.296;7.524;2022-08-01T09:06:32;95015.94;;;28.01;33.65
21182;BME280;10749;46.296;7.524;2022-08-01T09:08:58;95012.13;;;28.02;33.67
21182;BME280;10749;46.296;7.524;2022-08-01T09:11:24;95018.38;;;28.03;33.46
21182;BME280;10749;46.296;7.524;2022-08-01T09:14:09;95015.09;;;28.00;33.28
21182;BME280;10749;46.296;7.524;2022-08-01T09:16:41;95017.88;;;27.95;33.09
21182;BME280;10749;46.296;7.524;2022-08-01T09:21:35;95014.69;;;27.83;32.89
21182;BME280;10749;46.296;7.524;2022-08-01T09:24:01;95010.63;;;27.81;33.30
21182;BME280;10749;46.296;7.524;2022-08-01T09:26:35;95013.09;;;27.82;33.26
21182;BME280;10749;46.296;7.524;2022-08-01T09:29:06;95000.25;;;27.88;33.28
21182;BME280;10749;46.296;7.524;2022-08-01T09:31:42;94996.44;;;27.89;33.33
21182;BME280;10749;46.296;7.524;2022-08-01T09:34:08;94998.06;;;27.90;33.38
21182;BME280;10749;46.296;7.524;2022-08-01T09:36:49;94999.69;;;27.91;33.29
21182;BME280;10749;46.296;7.524;2022-08-01T09:39:20;94996.91;;;27.96;33.26
21182;BME280;10749;46.296;7.524;2022-08-01T09:41:47;94994.16;;;28.01;33.29
21182;BME280;10749;46.296;7.524;2022-08-01T09:44:14;94987.88;;;28.06;33.14
21182;BME280;10749;46.296;7.524;2022-08-01T09:46:53;94989.19;;;28.08;33.14
21182;BME280;10749;46.296;7.524;2022-08-01T09:49:32;94984.28;;;28.15;33.28
21182;BME280;10749;46.296;7.524;2022-08-01T09:52:11;94978.28;;;28.18;33.01
21182;BME280;10749;46.296;7.524;2022-08-01T09:54:37;94975.50;;;28.23;32.85
21182;BME280;10749;46.296;7.524;2022-08-01T09:57:10;94973.78;;;28.32;32.91
21182;BME280;10749;46.296;7.524;2022-08-01T09:59:37;94969.63;;;28.40;32.86
21182;BME280;10749;46.296;7.524;2022-08-01T10:02:05;94966.56;;;28.47;32.77
21182;BME280;10749;46.296;7.524;2022-08-01T10:04:30;94954.00;;;28.51;32.60
21182;BME280;10749;46.296;7.524;2022-08-01T10:07:04;94947.19;;;28.53;32.66
21182;BME280;10749;46.296;7.524;2022-08-01T10:09:32;94945.78;;;28.56;32.41
21182;BME280;10749;46.296;7.524;2022-08-01T10:11:59;94947.31;;;28.62;32.58
21182;BME280;10749;46.296;7.524;2022-08-01T10:14:26;94948.91;;;28.68;32.56
21182;BME280;10749;46.296;7.524;2022-08-01T10:16:52;94940.13;;;28.76;32.47
21182;BME280;10749;46.296;7.524;2022-08-01T10:19:25;94939.75;;;28.82;32.66
21182;BME280;10749;46.296;7.524;2022-08-01T10:21:52;94936.03;;;28.97;32.26
21182;BME280;10749;46.296;7.524;2022-08-01T10:24:22;94933.47;;;29.06;32.34
21182;BME280;10749;46.296;7.524;2022-08-01T10:26:51;94930.31;;;29.17;32.29
21182;BME280;10749;46.296;7.524;2022-08-01T10:29:19;94922.53;;;29.29;32.09
21182;BME280;10749;46.296;7.524;2022-08-01T10:31:46;94922.91;;;29.42;32.03
21182;BME280;10749;46.296;7.524;2022-08-01T10:34:13;94906.91;;;29.54;32.22
21182;BME280;10749;46.296;7.524;2022-08-01T10:36:42;94902.47;;;29.58;32.33
21182;BME280;10749;46.296;7.524;2022-08-01T10:39:10;94903.50;;;29.62;32.26
21182;BME280;10749;46.296;7.524;2022-08-01T10:41:37;94904.16;;;29.72;31.76
21182;BME280;10749;46.296;7.524;2022-08-01T10:44:03;94892.25;;;29.82;31.92
21182;BME280;10749;46.296;7.524;2022-08-01T10:46:31;94900.31;;;29.92;31.69
21182;BME280;10749;46.296;7.524;2022-08-01T10:49:00;94889.25;;;30.02;31.56
21182;BME280;10749;46.296;7.524;2022-08-01T10:51:27;94888.22;;;30.12;31.56
21182;BME280;10749;46.296;7.524;2022-08-01T10:53:53;94883.91;;;30.24;31.48
21182;BME280;10749;46.296;7.524;2022-08-01T10:56:21;94890.00;;;30.35;31.56
21182;BME280;10749;46.296;7.524;2022-08-01T10:58:47;94882.00;;;30.39;31.72
21182;BME280;10749;46.296;7.524;2022-08-01T11:01:24;94886.16;;;30.50;31.46
21182;BME280;10749;46.296;7.524;2022-08-01T11:09:19;94865.94;;;30.64;31.21
21182;BME280;10749;46.296;7.524;2022-08-01T11:14:32;94860.25;;;30.88;30.66
21182;BME280;10749;46.296;7.524;2022-08-01T11:17:40;94847.72;;;31.01;30.80
21182;BME280;10749;46.296;7.524;2022-08-01T11:20:33;94844.25;;;31.09;30.69
21182;BME280;10749;46.296;7.524;2022-08-01T11:25:28;94830.00;;;31.34;30.38
21182;BME280;10749;46.296;7.524;2022-08-01T11:30:44;94819.94;;;31.66;30.01
21182;BME280;10749;46.296;7.524;2022-08-01T11:33:10;94813.28;;;31.80;29.68
21182;BME280;10749;46.296;7.524;2022-08-01T11:35:36;94806.41;;;31.91;29.47
21182;BME280;10749;46.296;7.524;2022-08-01T11:38:27;94798.06;;;31.96;29.37
21182;BME280;10749;46.296;7.524;2022-08-01T11:43:36;94803.31;;;32.15;28.63
21182;BME280;10749;46.296;7.524;2022-08-01T11:46:19;94794.28;;;32.15;27.92
21182;BME280;10749;46.296;7.524;2022-08-01T11:48:44;94796.97;;;32.06;26.33
21182;BME280;10749;46.296;7.524;2022-08-01T11:51:15;94790.44;;;32.16;26.67
21182;BME280;10749;46.296;7.524;2022-08-01T11:53:47;94778.44;;;32.34;26.95
21182;BME280;10749;46.296;7.524;2022-08-01T11:56:12;94777.34;;;32.52;26.76
21182;BME280;10749;46.296;7.524;2022-08-01T11:58:38;94774.81;;;32.64;26.65
21182;BME280;10749;46.296;7.524;2022-08-01T12:01:03;94761.47;;;32.71;26.32
21182;BME280;10749;46.296;7.524;2022-08-01T12:03:31;94765.97;;;32.84;26.29
21182;BME280;10749;46.296;7.524;2022-08-01T12:05:58;94765.66;;;32.94;25.81
21182;BME280;10749;46.296;7.524;2022-08-01T12:08:27;94764.56;;;32.95;25.94
21182;BME280;10749;46.296;7.524;2022-08-01T12:10:54;94756.78;;;32.97;24.74
21182;BME280;10749;46.296;7.524;2022-08-01T12:13:19;94754.06;;;33.06;25.16
21182;BME280;10749;46.296;7.524;2022-08-01T12:15:46;94755.03;;;33.10;25.30
21182;BME280;10749;46.296;7.524;2022-08-01T12:18:12;94749.72;;;33.14;24.77
21182;BME280;10749;46.296;7.524;2022-08-01T12:20:39;94739.25;;;33.24;25.27
21182;BME280;10749;46.296;7.524;2022-08-01T12:23:11;94741.31;;;33.36;25.38
21182;BME280;10749;46.296;7.524;2022-08-01T12:25:38;94737.25;;;33.51;24.87
21182;BME280;10749;46.296;7.524;2022-08-01T12:28:10;94733.22;;;33.65;24.92
21182;BME280;10749;46.296;7.524;2022-08-01T12:30:36;94731.59;;;33.73;24.56
21182;BME280;10749;46.296;7.524;2022-08-01T12:33:04;94740.91;;;33.80;24.96
21182;BME280;10749;46.296;7.524;2022-08-01T12:35:33;94737.19;;;33.85;24.42
21182;BME280;10749;46.296;7.524;2022-08-01T12:38:14;94736.69;;;33.92;24.26
21182;BME280;10749;46.296;7.524;2022-08-01T12:40:44;94737.16;;;33.94;23.34
21182;BME280;10749;46.296;7.524;2022-08-01T12:43:09;94726.66;;;33.96;22.80
21182;BME280;10749;46.296;7.524;2022-08-01T12:45:38;94730.91;;;33.84;21.99
21182;BME280;10749;46.296;7.524;2022-08-01T12:48:23;94727.78;;;33.95;22.82
21182;BME280;10749;46.296;7.524;2022-08-01T12:50:49;94719.03;;;34.01;22.14
21182;BME280;10749;46.296;7.524;2022-08-01T12:53:17;94730.34;;;34.08;22.71
21182;BME280;10749;46.296;7.524;2022-08-01T12:55:54;94710.44;;;34.20;22.99
21182;BME280;10749;46.296;7.524;2022-08-01T12:58:20;94706.47;;;34.29;22.37
21182;BME280;10749;46.296;7.524;2022-08-01T13:00:48;94713.00;;;34.46;22.70
21182;BME280;10749;46.296;7.524;2022-08-01T13:03:18;94719.88;;;34.60;22.40
21182;BME280;10749;46.296;7.524;2022-08-01T13:05:54;94718.38;;;34.63;22.43
21182;BME280;10749;46.296;7.524;2022-08-01T13:08:31;94707.94;;;34.56;21.46
21182;BME280;10749;46.296;7.524;2022-08-01T13:11:02;94712.75;;;34.59;21.76
21182;BME280;10749;46.296;7.524;2022-08-01T13:13:43;94709.38;;;34.83;22.18
21182;BME280;10749;46.296;7.524;2022-08-01T13:16:12;94710.53;;;35.03;22.02
21182;BME280;10749;46.296;7.524;2022-08-01T13:18:38;94713.34;;;35.15;21.71
21182;BME280;10749;46.296;7.524;2022-08-01T13:21:33;94715.22;;;35.23;21.95
21182;BME280;10749;46.296;7.524;2022-08-01T13:24:09;94708.03;;;35.31;20.75
21182;BME280;10749;46.296;7.524;2022-08-01T13:26:47;94706.31;;;35.38;21.46